sensor_id;sensor_type;location;lat;lon;timestamp;temperature;humidity
19813;DHT22;10066;48.108;11.448;2023-04-01T00:02:07;8.20;99.90
19813;DHT22;10066;48.108;11.448;2023-04-01T00:04:36;8.20;99.90
19813;DHT22;10066;48.108;11.448;2023-04-01T00:07:03;8.20;99.90
19813;DHT22;10066;48.108;11.448;2023-04-01T00:09:30;8.10;99.90
19813;DHT22;10066;48.108;11.448;2023-04-01T00:11:57;8.10;99.90
19813;DHT22;10066;48.108;11.448;2023-04-01T00:14:25;8.10;99.90
19813;DHT22;10066;48.108;11.448;2023-04-01T00:16:52;8.00;99.90
19813;DHT22;10066;48.108;11.448;2023-04-01T00:19:19;8.00;99.90
19813;DHT22;10066;48.108;11.448;2023-04-01T00:21:47;8.00;99.90
19813;DHT22;10066;48.108;11.448;2023-04-01T00:24:14;8.00;99.90
19813;DHT22;10066;48.108;11.448;2023-04-01T00:26:42;7.90;99.90
19813;DHT22;10066;48.108;11.448;2023-04-01T00:29:10;7.90;99.90
19813;DHT22;10066;48.108;11.448;2023-04-01T00:31:36;7.90;99.90
19813;DHT22;10066;48.108;11.448;2023-04-01T00:34:03;7.90;99.90
19813;DHT22;10066;48.108;11.448;2023-04-01T00:36:30;7.90;99.90
19813;DHT22;10066;48.108;11.448;2023-04-01T00:38:59;7.80;99.90
19813;DHT22;10066;48.108;11.448;2023-04-01T00:41:26;7.70;99.90
19813;DHT22;10066;48.108;11.448;2023-04-01T00:44:12;7.70;99.90
19813;DHT22;10066;48.108;11.448;2023-04-01T00:46:40;7.60;99.90
19813;DHT22;10066;48.108;11.448;2023-04-01T00:49:08;7.60;99.90
19813;DHT22;10066;48.108;11.448;2023-04-01T00:51:37;7.60;99.90
19813;DHT22;10066;48.108;11.448;2023-04-01T00:54:08;7.50;99.90
19813;DHT22;10066;48.108;11.448;2023-04-01T00:56:37;7.50;99.90
19813;DHT22;10066;48.108;11.448;2023-04-01T00:59:09;7.50;99.90
19813;DHT22;10066;48.108;11.448;2023-04-01T01:01:37;7.50;99.90
19813;DHT22;10066;48.108;11.448;2023-04-01T01:04:05;7.50;99.90
19813;DHT22;10066;48.108;11.448;2023-04-01T01:06:50;7.50;99.90
19813;DHT22;10066;48.108;11.448;2023-04-01T01:09:28;7.50;99.90
19813;DHT22;10066;48.108;11.448;2023-04-01T01:12:04;7.60;99.90
19813;DHT22;10066;48.108;11.448;2023-04-01T01:14:45;7.60;99.90
19813;DHT22;10066;48.108;11.448;2023-04-01T01:17:19;7.70;99.90
19813;DHT22;10066;48.108;11.448;2023-04-01T01:20:23;7.70;99.90
19813;DHT22;10066;48.108;11.448;2023-04-01T01:26:08;7.80;99.90
19813;DHT22;10066;48.108;11.448;2023-04-01T01:28:44;7.80;99.90
19813;DHT22;10066;48.108;11.448;2023-04-01T01:31:20;7.90;99.90
19813;DHT22;10066;48.108;11.448;2023-04-01T01:34:04;7.90;99.90
19813;DHT22;10066;48.108;11.448;2023-04-01T01:36:34;7.90;99.90
19813;DHT22;10066;48.108;11.448;2023-04-01T01:39:03;8.00;99.90
19813;DHT22;10066;48.108;11.448;2023-04-01T01:41:32;8.00;99.90
19813;DHT22;10066;48.108;11.448;2023-04-01T01:44:03;8.10;99.90
19813;DHT22;10066;48.108;11.448;2023-04-01T01:46:31;8.10;99.90
19813;DHT22;10066;48.108;11.448;2023-04-01T01:49:00;8.00;99.90
19813;DHT22;10066;48.108;11.448;2023-04-01T01:51:28;8.00;99.90
19813;DHT22;10066;48.108;11.448;2023-04-01T01:53:56;8.00;99.90
19813;DHT22;10066;48.108;11.448;2023-04-01T01:56:26;7.90;99.90
19813;DHT22;10066;48.108;11.448;2023-04-01T01:58:56;7.90;99.90
19813;DHT22;10066;48.108;11.448;2023-04-01T02:01:27;7.90;99.90
19813;DHT22;10066;48.108;11.448;2023-04-01T02:03:55;7.90;99.90
19813;DHT22;10066;48.108;11.448;2023-04-01T02:06:25;7.80;99.90
19813;DHT22;10066;48.108;11.448;2023-04-01T02:08:57;7.90;99.90
19813;DHT22;10066;48.108;11.448;2023-04-01T02:11:27;7.90;99.90
19813;DHT22;10066;48.108;11.448;2023-04-01T02:13:58;7.80;99.90
19813;DHT22;10066;48.108;11.448;2023-04-01T02:16:30;7.90;99.90
19813;DHT22;10066;48.108;11.448;2023-04-01T02:19:01;7.90;99.90
19813;DHT22;10066;48.108;11.448;2023-04-01T02:21:33;7.90;99.90
19813;DHT22;10066;48.108;11.448;2023-04-01T02:24:05;7.90;99.90
19813;DHT22;10066;48.108;11.448;2023-04-01T02:26:32;7.90;99.90
19813;DHT22;10066;48.108;11.448;2023-04-01T02:29:01;7.90;99.90
19813;DHT22;10066;48.108;11.448;2023-04-01T02:31:29;7.80;99.90
19813;DHT22;10066;48.108;11.448;2023-04-01T02:33:57;7.80;99.90
19813;DHT22;10066;48.108;11.448;2023-04-01T02:36:24;7.80;99.90
19813;DHT22;10066;48.108;11.448;2023-04-01T02:38:54;7.80;99.90
19813;DHT22;10066;48.108;11.448;2023-04-01T02:41:26;7.80;99.90
19813;DHT22;10066;48.108;11.448;2023-04-01T02:43:53;7.80;99.90
19813;DHT22;10066;48.108;11.448;2023-04-01T02:46:20;7.80;99.90
19813;DHT22;10066;48.108;11.448;2023-04-01T02:48:47;7.80;99.90
19813;DHT22;10066;48.108;11.448;2023-04-01T02:51:14;7.80;99.90
19813;DHT22;10066;48.108;11.448;2023-04-01T02:53:41;7.80;99.90
19813;DHT22;10066;48.108;11.448;2023-04-01T02:56:09;7.80;99.90
19813;DHT22;10066;48.108;11.448;2023-04-01T02:58:38;7.80;99.90
19813;DHT22;10066;48.108;11.448;2023-04-01T03:01:06;7.80;99.90
19813;DHT22;10066;48.108;11.448;2023-04-01T03:03:33;7.80;99.90
19813;DHT22;10066;48.108;11.448;2023-04-01T03:06:05;7.80;99.90
19813;DHT22;10066;48.108;11.448;2023-04-01T03:08:32;7.80;99.90
19813;DHT22;10066;48.108;11.448;2023-04-01T03:10:59;7.80;99.90
19813;DHT22;10066;48.108;11.448;2023-04-01T03:13:26;7.80;99.90
19813;DHT22;10066;48.108;11.448;2023-04-01T03:15:54;7.90;99.90
19813;DHT22;10066;48.108;11.448;2023-04-01T03:18:22;7.80;99.90
19813;DHT22;10066;48.108;11.448;2023-04-01T03:20:49;7.80;99.90
19813;DHT22;10066;48.108;11.448;2023-04-01T03:23:16;7.80;99.90
19813;DHT22;10066;48.108;11.448;2023-04-01T03:25:45;7.80;99.90
19813;DHT22;10066;48.108;11.448;2023-04-01T03:28:12;7.80;99.90
19813;DHT22;10066;48.108;11.448;2023-04-01T03:30:39;7.80;99.90
19813;DHT22;10066;48.108;11.448;2023-04-01T03:33:07;7.80;99.90
19813;DHT22;10066;48.108;11.448;2023-04-01T03:35:34;7.80;99.90
19813;DHT22;10066;48.108;11.448;2023-04-01T03:38:02;7.80;99.90
19813;DHT22;10066;48.108;11.448;2023-04-01T03:40:29;7.70;99.90
19813;DHT22;10066;48.108;11.448;2023-04-01T03:42:58;7.70;99.90
19813;DHT22;10066;48.108;11.448;2023-04-01T03:45:25;7.60;99.90
19813;DHT22;10066;48.108;11.448;2023-04-01T03:47:53;7.50;99.90
19813;DHT22;10066;48.108;11.448;2023-04-01T03:50:22;7.40;99.90
19813;DHT22;10066;48.108;11.448;2023-04-01T03:52:49;7.40;99.90
19813;DHT22;10066;48.108;11.448;2023-04-01T03:55:16;7.40;99.90
19813;DHT22;10066;48.108;11.448;2023-04-01T03:57:43;7.40;99.90
19813;DHT22;10066;48.108;11.448;2023-04-01T04:00:11;7.40;99.90
19813;DHT22;10066;48.108;11.448;2023-04-01T04:02:38;7.40;99.90
19813;DHT22;10066;48.108;11.448;2023-04-01T04:05:05;7.40;99.90
19813;DHT22;10066;48.108;11.448;2023-04-01T04:07:35;7.40;99.90
19813;DHT22;10066;48.108;11.448;2023-04-01T04:10:08;7.40;99.90
19813;DHT22;10066;48.108;11.448;2023-04-01T04:13:11;7.40;99.90
19813;DHT22;10066;48.108;11.448;2023-04-01T04:16:14;7.30;99.90
19813;DHT22;10066;48.108;11.448;2023-04-01T04:24:59;7.10;99.90
19813;DHT22;10066;48.108;11.448;2023-04-01T04:27:26;7.10;99.90
19813;DHT22;10066;48.108;11.448;2023-04-01T04:29:53;7.20;99.90
19813;DHT22;10066;48.108;11.448;2023-04-01T04:32:20;7.20;99.90
19813;DHT22;10066;48.108;11.448;2023-04-01T04:34:46;7.30;99.90
19813;DHT22;10066;48.108;11.448;2023-04-01T04:37:13;7.30;99.90
19813;DHT22;10066;48.108;11.448;2023-04-01T04:39:40;7.40;99.90
19813;DHT22;10066;48.108;11.448;2023-04-01T04:42:09;7.40;99.90
19813;DHT22;10066;48.108;11.448;2023-04-01T04:44:36;7.40;99.90
19813;DHT22;10066;48.108;11.448;2023-04-01T04:47:03;7.40;99.90
19813;DHT22;10066;48.108;11.448;2023-04-01T04:49:30;7.40;99.90
19813;DHT22;10066;48.108;11.448;2023-04-01T04:51:57;7.50;99.90
19813;DHT22;10066;48.108;11.448;2023-04-01T04:54:24;7.50;99.90
19813;DHT22;10066;48.108;11.448;2023-04-01T04:56:52;7.60;99.90
19813;DHT22;10066;48.108;11.448;2023-04-01T04:59:20;7.60;99.90
19813;DHT22;10066;48.108;11.448;2023-04-01T05:01:47;7.70;99.90
19813;DHT22;10066;48.108;11.448;2023-04-01T05:04:14;7.70;99.90
19813;DHT22;10066;48.108;11.448;2023-04-01T05:06:43;7.70;99.90
19813;DHT22;10066;48.108;11.448;2023-04-01T05:09:10;7.70;99.90
19813;DHT22;10066;48.108;11.448;2023-04-01T05:11:37;7.80;99.90
19813;DHT22;10066;48.108;11.448;2023-04-01T05:14:05;7.80;99.90
19813;DHT22;10066;48.108;11.448;2023-04-01T05:16:34;7.90;99.90
19813;DHT22;10066;48.108;11.448;2023-04-01T05:19:00;7.90;99.90
19813;DHT22;10066;48.108;11.448;2023-04-01T05:21:27;7.90;99.90
19813;DHT22;10066;48.108;11.448;2023-04-01T05:23:55;8.00;99.90
19813;DHT22;10066;48.108;11.448;2023-04-01T05:26:22;8.00;99.90
19813;DHT22;10066;48.108;11.448;2023-04-01T05:28:48;8.00;99.90
19813;DHT22;10066;48.108;11.448;2023-04-01T05:31:15;8.00;99.90
19813;DHT22;10066;48.108;11.448;2023-04-01T05:33:44;8.00;99.90
19813;DHT22;10066;48.108;11.448;2023-04-01T05:36:13;8.10;99.90
19813;DHT22;10066;48.108;11.448;2023-04-01T05:38:40;8.10;99.90
19813;DHT22;10066;48.108;11.448;2023-04-01T05:41:07;8.20;99.90
19813;DHT22;10066;48.108;11.448;2023-04-01T05:43:36;8.20;99.90
19813;DHT22;10066;48.108;11.448;2023-04-01T05:46:03;8.30;99.90
19813;DHT22;10066;48.108;11.448;2023-04-01T05:48:31;8.30;99.90
19813;DHT22;10066;48.108;11.448;2023-04-01T05:51:00;8.50;99.90
19813;DHT22;10066;48.108;11.448;2023-04-01T05:53:27;8.60;99.90
19813;DHT22;10066;48.108;11.448;2023-04-01T05:55:54;8.60;99.90
19813;DHT22;10066;48.108;11.448;2023-04-01T05:58:21;8.80;99.90
19813;DHT22;10066;48.108;11.448;2023-04-01T06:00:48;9.10;99.90
19813;DHT22;10066;48.108;11.448;2023-04-01T06:03:15;9.00;99.90
19813;DHT22;10066;48.108;11.448;2023-04-01T06:05:43;8.90;99.90
19813;DHT22;10066;48.108;11.448;2023-04-01T06:08:13;8.90;99.90
19813;DHT22;10066;48.108;11.448;2023-04-01T06:10:55;8.80;99.90
19813;DHT22;10066;48.108;11.448;2023-04-01T06:13:39;8.80;99.90
19813;DHT22;10066;48.108;11.448;2023-04-01T06:16:14;8.70;99.90
19813;DHT22;10066;48.108;11.448;2023-04-01T06:18:57;8.70;99.90
19813;DHT22;10066;48.108;11.448;2023-04-01T06:24:49;8.60;99.90
19813;DHT22;10066;48.108;11.448;2023-04-01T06:27:30;8.60;99.90
19813;DHT22;10066;48.108;11.448;2023-04-01T06:30:11;8.60;99.90
19813;DHT22;10066;48.108;11.448;2023-04-01T06:32:54;8.60;99.90
19813;DHT22;10066;48.108;11.448;2023-04-01T06:35:35;8.60;99.90
19813;DHT22;10066;48.108;11.448;2023-04-01T06:38:20;8.70;99.90
19813;DHT22;10066;48.108;11.448;2023-04-01T06:41:32;8.70;99.90
19813;DHT22;10066;48.108;11.448;2023-04-01T06:44:12;8.70;99.90
19813;DHT22;10066;48.108;11.448;2023-04-01T06:46:44;8.80;99.90
19813;DHT22;10066;48.108;11.448;2023-04-01T06:49:33;8.80;99.90
19813;DHT22;10066;48.108;11.448;2023-04-01T06:52:08;8.80;99.90
19813;DHT22;10066;48.108;11.448;2023-04-01T06:54:45;8.80;99.90
19813;DHT22;10066;48.108;11.448;2023-04-01T06:57:21;8.90;99.90
19813;DHT22;10066;48.108;11.448;2023-04-01T06:59:52;8.90;99.90
19813;DHT22;10066;48.108;11.448;2023-04-01T07:02:28;8.90;99.90
19813;DHT22;10066;48.108;11.448;2023-04-01T07:04:58;8.90;99.90
19813;DHT22;10066;48.108;11.448;2023-04-01T07:07:31;9.00;99.90
19813;DHT22;10066;48.108;11.448;2023-04-01T07:10:04;9.00;99.90
19813;DHT22;10066;48.108;11.448;2023-04-01T07:12:40;9.10;99.90
19813;DHT22;10066;48.108;11.448;2023-04-01T07:15:17;9.30;99.90
19813;DHT22;10066;48.108;11.448;2023-04-01T07:17:48;9.40;99.90
19813;DHT22;10066;48.108;11.448;2023-04-01T07:20:23;9.50;99.90
19813;DHT22;10066;48.108;11.448;2023-04-01T07:22:53;9.60;99.90
19813;DHT22;10066;48.108;11.448;2023-04-01T07:25:23;9.70;99.90
19813;DHT22;10066;48.108;11.448;2023-04-01T07:27:59;9.70;99.90
19813;DHT22;10066;48.108;11.448;2023-04-01T07:30:30;9.70;99.90
19813;DHT22;10066;48.108;11.448;2023-04-01T07:33:04;9.80;99.90
19813;DHT22;10066;48.108;11.448;2023-04-01T07:35:38;9.80;99.90
19813;DHT22;10066;48.108;11.448;2023-04-01T07:38:15;9.80;99.90
19813;DHT22;10066;48.108;11.448;2023-04-01T07:40:48;9.90;99.90
19813;DHT22;10066;48.108;11.448;2023-04-01T07:43:26;10.00;99.90
19813;DHT22;10066;48.108;11.448;2023-04-01T07:46:03;10.00;99.90
19813;DHT22;10066;48.108;11.448;2023-04-01T07:48:39;10.10;99.90
19813;DHT22;10066;48.108;11.448;2023-04-01T07:51:15;10.20;99.90
19813;DHT22;10066;48.108;11.448;2023-04-01T07:53:46;10.30;99.90
19813;DHT22;10066;48.108;11.448;2023-04-01T07:56:18;10.40;99.90
19813;DHT22;10066;48.108;11.448;2023-04-01T07:58:54;10.50;99.90
19813;DHT22;10066;48.108;11.448;2023-04-01T08:01:29;10.60;99.90
19813;DHT22;10066;48.108;11.448;2023-04-01T08:04:17;10.80;99.90
19813;DHT22;10066;48.108;11.448;2023-04-01T08:06:52;10.90;99.90
19813;DHT22;10066;48.108;11.448;2023-04-01T08:09:25;11.00;99.90
19813;DHT22;10066;48.108;11.448;2023-04-01T08:12:08;11.00;99.90
19813;DHT22;10066;48.108;11.448;2023-04-01T08:14:48;11.10;99.90
19813;DHT22;10066;48.108;11.448;2023-04-01T08:17:26;11.10;99.90
19813;DHT22;10066;48.108;11.448;2023-04-01T08:20:03;11.20;99.90
19813;DHT22;10066;48.108;11.448;2023-04-01T08:22:39;11.20;99.90
19813;DHT22;10066;48.108;11.448;2023-04-01T08:25:13;11.20;99.90
19813;DHT22;10066;48.108;11.448;2023-04-01T08:27:45;11.10;99.90
19813;DHT22;10066;48.108;11.448;2023-04-01T08:30:21;11.20;99.90
19813;DHT22;10066;48.108;11.448;2023-04-01T08:32:53;11.10;99.90
19813;DHT22;10066;48.108;11.448;2023-04-01T08:35:27;11.20;99.90
19813;DHT22;10066;48.108;11.448;2023-04-01T08:37:59;11.40;99.90
19813;DHT22;10066;48.108;11.448;2023-04-01T08:41:00;11.40;99.90
19813;DHT22;10066;48.108;11.448;2023-04-01T08:46:38;11.40;99.90
19813;DHT22;10066;48.108;11.448;2023-04-01T08:49:20;11.50;99.90
19813;DHT22;10066;48.108;11.448;2023-04-01T08:55:16;11.60;99.90
19813;DHT22;10066;48.108;11.448;2023-04-01T08:57:56;11.70;99.90
19813;DHT22;10066;48.108;11.448;2023-04-01T09:00:30;11.70;99.90
19813;DHT22;10066;48.108;11.448;2023-04-01T09:03:21;11.80;99.90
19813;DHT22;10066;48.108;11.448;2023-04-01T09:06:10;11.90;99.90
19813;DHT22;10066;48.108;11.448;2023-04-01T09:08:52;11.90;99.90
19813;DHT22;10066;48.108;11.448;2023-04-01T09:11:33;12.10;99.90
19813;DHT22;10066;48.108;11.448;2023-04-01T09:14:33;12.10;99.90
19813;DHT22;10066;48.108;11.448;2023-04-01T09:17:29;12.20;99.90
19813;DHT22;10066;48.108;11.448;2023-04-01T09:20:22;12.20;99.90
19813;DHT22;10066;48.108;11.448;2023-04-01T09:23:10;12.40;99.90
19813;DHT22;10066;48.108;11.448;2023-04-01T09:28:28;12.50;99.90
19813;DHT22;10066;48.108;11.448;2023-04-01T09:31:36;12.60;99.90
19813;DHT22;10066;48.108;11.448;2023-04-01T09:37:18;12.80;99.90
19813;DHT22;10066;48.108;11.448;2023-04-01T09:40:13;12.90;99.90
19813;DHT22;10066;48.108;11.448;2023-04-01T09:42:44;12.90;99.90
19813;DHT22;10066;48.108;11.448;2023-04-01T09:45:32;12.90;99.90
19813;DHT22;10066;48.108;11.448;2023-04-01T09:48:10;12.90;99.90
19813;DHT22;10066;48.108;11.448;2023-04-01T09:50:47;12.80;99.90
19813;DHT22;10066;48.108;11.448;2023-04-01T09:59:50;13.10;99.90
19813;DHT22;10066;48.108;11.448;2023-04-01T10:02:40;13.10;99.90
19813;DHT22;10066;48.108;11.448;2023-04-01T10:05:48;13.20;99.90
19813;DHT22;10066;48.108;11.448;2023-04-01T10:17:39;13.40;99.90
19813;DHT22;10066;48.108;11.448;2023-04-01T10:20:46;13.50;99.90
19813;DHT22;10066;48.108;11.448;2023-04-01T10:26:58;13.40;99.90
19813;DHT22;10066;48.108;11.448;2023-04-01T10:30:16;13.30;99.90
19813;DHT22;10066;48.108;11.448;2023-04-01T10:33:24;13.20;99.90
19813;DHT22;10066;48.108;11.448;2023-04-01T10:36:34;13.20;99.90
19813;DHT22;10066;48.108;11.448;2023-04-01T10:39:33;13.20;99.90
19813;DHT22;10066;48.108;11.448;2023-04-01T10:42:20;13.20;99.90
19813;DHT22;10066;48.108;11.448;2023-04-01T10:45:29;13.20;99.90
19813;DHT22;10066;48.108;11.448;2023-04-01T10:48:22;13.20;99.90
19813;DHT22;10066;48.108;11.448;2023-04-01T10:51:10;13.20;99.90
19813;DHT22;10066;48.108;11.448;2023-04-01T10:53:49;13.10;99.90
19813;DHT22;10066;48.108;11.448;2023-04-01T10:56:39;13.00;99.90
19813;DHT22;10066;48.108;11.448;2023-04-01T11:02:36;12.80;99.90
19813;DHT22;10066;48.108;11.448;2023-04-01T11:15:06;12.60;99.90
19813;DHT22;10066;48.108;11.448;2023-04-01T11:24:04;12.30;99.90
19813;DHT22;10066;48.108;11.448;2023-04-01T11:26:44;12.10;99.90
19813;DHT22;10066;48.108;11.448;2023-04-01T11:29:29;12.00;99.90
19813;DHT22;10066;48.108;11.448;2023-04-01T11:32:11;11.90;99.90
19813;DHT22;10066;48.108;11.448;2023-04-01T11:35:00;11.90;99.90
19813;DHT22;10066;48.108;11.448;2023-04-01T11:37:43;11.90;99.90
19813;DHT22;10066;48.108;11.448;2023-04-01T11:40:19;11.90;99.90
19813;DHT22;10066;48.108;11.448;2023-04-01T11:42:55;11.90;99.90
19813;DHT22;10066;48.108;11.448;2023-04-01T11:45:35;11.90;99.90
19813;DHT22;10066;48.108;11.448;2023-04-01T11:48:28;11.90;99.90
19813;DHT22;10066;48.108;11.448;2023-04-01T11:51:20;11.90;99.90
19813;DHT22;10066;48.108;11.448;2023-04-01T11:53:53;11.80;99.90
19813;DHT22;10066;48.108;11.448;2023-04-01T11:56:39;11.60;99.90
19813;DHT22;10066;48.108;11.448;2023-04-01T11:59:32;11.50;99.90
19813;DHT22;10066;48.108;11.448;2023-04-01T12:02:11;11.30;99.90
19813;DHT22;10066;48.108;11.448;2023-04-01T12:04:54;11.20;99.90
19813;DHT22;10066;48.108;11.448;2023-04-01T12:07:49;11.10;99.90
19813;DHT22;10066;48.108;11.448;2023-04-01T12:10:19;11.00;99.90
19813;DHT22;10066;48.108;11.448;2023-04-01T12:12:54;10.80;99.90
19813;DHT22;10066;48.108;11.448;2023-04-01T12:15:31;10.60;99.90
19813;DHT22;10066;48.108;11.448;2023-04-01T12:18:10;10.40;99.90
19813;DHT22;10066;48.108;11.448;2023-04-01T12:20:49;10.30;99.90
19813;DHT22;10066;48.108;11.448;2023-04-01T12:26:15;10.10;99.90
19813;DHT22;10066;48.108;11.448;2023-04-01T12:28:58;10.10;99.90
19813;DHT22;10066;48.108;11.448;2023-04-01T12:31:38;10.00;99.90
19813;DHT22;10066;48.108;11.448;2023-04-01T12:37:14;9.80;99.90
19813;DHT22;10066;48.108;11.448;2023-04-01T12:40:01;9.80;99.90
19813;DHT22;10066;48.108;11.448;2023-04-01T12:42:48;9.70;99.90
19813;DHT22;10066;48.108;11.448;2023-04-01T12:45:28;9.70;99.90
19813;DHT22;10066;48.108;11.448;2023-04-01T12:48:31;9.70;99.90
19813;DHT22;10066;48.108;11.448;2023-04-01T13:00:41;9.60;99.90
19813;DHT22;10066;48.108;11.448;2023-04-01T13:03:27;9.50;99.90
19813;DHT22;10066;48.108;11.448;2023-04-01T13:06:22;9.50;99.90
19813;DHT22;10066;48.108;11.448;2023-04-01T13:08:55;9.40;99.90
19813;DHT22;10066;48.108;11.448;2023-04-01T13:11:36;9.30;99.90
19813;DHT22;10066;48.108;11.448;2023-04-01T13:17:23;9.30;99.90
19813;DHT22;10066;48.108;11.448;2023-04-01T13:19:57;9.30;99.90
19813;DHT22;10066;48.108;11.448;2023-04-01T13:22:29;9.30;99.90
19813;DHT22;10066;48.108;11.448;2023-04-01T13:25:03;9.30;99.90
19813;DHT22;10066;48.108;11.448;2023-04-01T13:27:36;9.30;99.90
19813;DHT22;10066;48.108;11.448;2023-04-01T13:30:21;9.20;99.90
19813;DHT22;10066;48.108;11.448;2023-04-01T13:32:57;9.30;99.90
19813;DHT22;10066;48.108;11.448;2023-04-01T13:35:36;9.30;99.90
19813;DHT22;10066;48.108;11.448;2023-04-01T13:38:24;9.30;99.90
19813;DHT22;10066;48.108;11.448;2023-04-01T13:40:58;9.20;99.90
19813;DHT22;10066;48.108;11.448;2023-04-01T13:43:32;9.30;99.90
19813;DHT22;10066;48.108;11.448;2023-04-01T13:55:20;9.30;99.90
19813;DHT22;10066;48.108;11.448;2023-04-01T13:58:04;9.30;99.90
19813;DHT22;10066;48.108;11.448;2023-04-01T14:00:45;9.30;99.90
19813;DHT22;10066;48.108;11.448;2023-04-01T14:03:36;9.30;99.90
19813;DHT22;10066;48.108;11.448;2023-04-01T14:06:16;9.40;99.90
19813;DHT22;10066;48.108;11.448;2023-04-01T14:09:09;9.50;99.90
19813;DHT22;10066;48.108;11.448;2023-04-01T14:11:42;9.60;99.90
19813;DHT22;10066;48.108;11.448;2023-04-01T14:14:21;9.70;99.90
19813;DHT22;10066;48.108;11.448;2023-04-01T14:17:19;9.80;99.90
19813;DHT22;10066;48.108;11.448;2023-04-01T14:20:13;9.80;99.90
19813;DHT22;10066;48.108;11.448;2023-04-01T14:22:54;9.90;99.90
19813;DHT22;10066;48.108;11.448;2023-04-01T14:25:39;9.80;99.90
19813;DHT22;10066;48.108;11.448;2023-04-01T14:28:14;9.90;99.90
19813;DHT22;10066;48.108;11.448;2023-04-01T14:30:56;9.80;99.90
19813;DHT22;10066;48.108;11.448;2023-04-01T14:33:32;9.70;99.90
19813;DHT22;10066;48.108;11.448;2023-04-01T14:36:33;9.70;99.90
19813;DHT22;10066;48.108;11.448;2023-04-01T14:39:19;9.80;99.90
19813;DHT22;10066;48.108;11.448;2023-04-01T14:41:54;9.80;99.90
19813;DHT22;10066;48.108;11.448;2023-04-01T14:44:44;9.90;99.90
19813;DHT22;10066;48.108;11.448;2023-04-01T14:47:43;9.90;99.90
19813;DHT22;10066;48.108;11.448;2023-04-01T14:50:14;9.90;99.90
19813;DHT22;10066;48.108;11.448;2023-04-01T14:52:57;9.90;99.90
19813;DHT22;10066;48.108;11.448;2023-04-01T14:55:32;9.90;99.90
19813;DHT22;10066;48.108;11.448;2023-04-01T14:58:08;9.90;99.90
19813;DHT22;10066;48.108;11.448;2023-04-01T15:00:48;9.90;99.90
19813;DHT22;10066;48.108;11.448;2023-04-01T15:03:20;10.00;99.90
19813;DHT22;10066;48.108;11.448;2023-04-01T15:05:52;9.90;99.90
19813;DHT22;10066;48.108;11.448;2023-04-01T15:08:23;10.00;99.90
19813;DHT22;10066;48.108;11.448;2023-04-01T15:23:14;10.00;99.90
19813;DHT22;10066;48.108;11.448;2023-04-01T15:25:55;10.00;99.90
19813;DHT22;10066;48.108;11.448;2023-04-01T15:28:33;9.90;99.90
19813;DHT22;10066;48.108;11.448;2023-04-01T15:31:09;9.80;99.90
19813;DHT22;10066;48.108;11.448;2023-04-01T15:33:56;9.70;99.90
19813;DHT22;10066;48.108;11.448;2023-04-01T15:36:30;9.70;99.90
19813;DHT22;10066;48.108;11.448;2023-04-01T15:39:09;9.70;99.90
19813;DHT22;10066;48.108;11.448;2023-04-01T15:41:43;9.70;99.90
19813;DHT22;10066;48.108;11.448;2023-04-01T15:44:48;9.80;99.90
19813;DHT22;10066;48.108;11.448;2023-04-01T15:47:32;9.80;99.90
19813;DHT22;10066;48.108;11.448;2023-04-01T15:50:18;9.80;99.90
19813;DHT22;10066;48.108;11.448;2023-04-01T15:52:56;9.90;99.90
19813;DHT22;10066;48.108;11.448;2023-04-01T15:55:27;9.90;99.90
19813;DHT22;10066;48.108;11.448;2023-04-01T15:58:11;10.00;99.90
19813;DHT22;10066;48.108;11.448;2023-04-01T16:00:46;10.10;99.90
19813;DHT22;10066;48.108;11.448;2023-04-01T16:03:20;10.10;99.90
19813;DHT22;10066;48.108;11.448;2023-04-01T16:06:01;10.10;99.90
19813;DHT22;10066;48.108;11.448;2023-04-01T16:08:54;10.10;99.90
19813;DHT22;10066;48.108;11.448;2023-04-01T16:11:34;10.10;99.90
19813;DHT22;10066;48.108;11.448;2023-04-01T16:14:18;10.10;99.90
19813;DHT22;10066;48.108;11.448;2023-04-01T16:17:10;10.10;99.90
19813;DHT22;10066;48.108;11.448;2023-04-01T16:19:51;10.10;99.90
19813;DHT22;10066;48.108;11.448;2023-04-01T16:22:23;10.20;99.90
19813;DHT22;10066;48.108;11.448;2023-04-01T16:24:59;10.20;99.90
19813;DHT22;10066;48.108;11.448;2023-04-01T16:27:32;10.20;99.90
19813;DHT22;10066;48.108;11.448;2023-04-01T16:30:10;10.20;99.90
19813;DHT22;10066;48.108;11.448;2023-04-01T16:32:53;10.10;99.90
19813;DHT22;10066;48.108;11.448;2023-04-01T16:35:41;10.10;99.90
19813;DHT22;10066;48.108;11.448;2023-04-01T16:38:18;10.10;99.90
19813;DHT22;10066;48.108;11.448;2023-04-01T16:41:00;10.10;99.90
19813;DHT22;10066;48.108;11.448;2023-04-01T16:43:38;10.00;99.90
19813;DHT22;10066;48.108;11.448;2023-04-01T16:46:28;10.00;99.90
19813;DHT22;10066;48.108;11.448;2023-04-01T16:49:04;9.90;99.90
19813;DHT22;10066;48.108;11.448;2023-04-01T16:51:46;9.90;99.90
19813;DHT22;10066;48.108;11.448;2023-04-01T16:54:26;9.80;99.90
19813;DHT22;10066;48.108;11.448;2023-04-01T16:56:56;9.80;99.90
19813;DHT22;10066;48.108;11.448;2023-04-01T16:59:35;9.80;99.90
19813;DHT22;10066;48.108;11.448;2023-04-01T17:02:08;9.80;99.90
19813;DHT22;10066;48.108;11.448;2023-04-01T17:04:41;9.80;99.90
19813;DHT22;10066;48.108;11.448;2023-04-01T17:07:22;9.80;99.90
19813;DHT22;10066;48.108;11.448;2023-04-01T17:10:02;9.80;99.90
19813;DHT22;10066;48.108;11.448;2023-04-01T17:12:35;9.70;99.90
19813;DHT22;10066;48.108;11.448;2023-04-01T17:15:12;9.70;99.90
19813;DHT22;10066;48.108;11.448;2023-04-01T17:17:47;9.70;99.90
19813;DHT22;10066;48.108;11.448;2023-04-01T17:20:33;9.70;99.90
19813;DHT22;10066;48.108;11.448;2023-04-01T17:23:12;9.70;99.90
19813;DHT22;10066;48.108;11.448;2023-04-01T17:25:56;9.70;99.90
19813;DHT22;10066;48.108;11.448;2023-04-01T17:28:34;9.60;99.90
19813;DHT22;10066;48.108;11.448;2023-04-01T17:31:10;9.60;99.90
19813;DHT22;10066;48.108;11.448;2023-04-01T17:34:11;9.60;99.90
19813;DHT22;10066;48.108;11.448;2023-04-01T17:37:05;9.60;99.90
19813;DHT22;10066;48.108;11.448;2023-04-01T17:43:05;9.60;99.90
19813;DHT22;10066;48.108;11.448;2023-04-01T17:45:42;9.60;99.90
19813;DHT22;10066;48.108;11.448;2023-04-01T17:48:18;9.60;99.90
19813;DHT22;10066;48.108;11.448;2023-04-01T17:50:58;9.50;99.90
19813;DHT22;10066;48.108;11.448;2023-04-01T17:53:35;9.60;99.90
19813;DHT22;10066;48.108;11.448;2023-04-01T17:56:14;9.50;99.90
19813;DHT22;10066;48.108;11.448;2023-04-01T17:58:49;9.50;99.90
19813;DHT22;10066;48.108;11.448;2023-04-01T18:01:26;9.50;99.90
19813;DHT22;10066;48.108;11.448;2023-04-01T18:04:15;9.40;99.90
19813;DHT22;10066;48.108;11.448;2023-04-01T18:07:03;9.40;99.90
19813;DHT22;10066;48.108;11.448;2023-04-01T18:09:39;9.40;99.90
19813;DHT22;10066;48.108;11.448;2023-04-01T18:12:14;9.40;99.90
19813;DHT22;10066;48.108;11.448;2023-04-01T18:15:04;9.40;99.90